Time;durP1;ratioP1;P1;durP2;ratioP2;P2;SDS_P1;SDS_P2;PMS_P1;PMS_P2;Temp;Humidity;BMP_temperature;BMP_pressure;BME280_temperature;BME280_humidity;BME280_pressure;Samples;Min_cycle;Max_cycle;Signal;HPM_P1;HPM_P2
2022/10/08 00:01:04;530994.00;1.77;915.20;19035.00;0.06;33.60;;;;;18.50;4.20;;;;;;2276373;61;1086;-86
2022/10/08 00:03:33;592807.00;1.98;1021.80;104701.00;0.35;181.69;;;;;18.70;4.60;;;;;;2276233;61;1998;-85
2022/10/08 00:06:02;452420.00;1.51;779.95;0.00;0.00;0.62;;;;;18.60;4.40;;;;;;2276357;61;1014;-85
2022/10/08 00:08:32;501919.00;1.67;865.13;0.00;0.00;0.62;;;;;18.80;3.40;;;;;;2276240;61;1114;-88
2022/10/08 00:11:02;599136.00;2.00;1032.73;0.00;0.00;0.62;;;;;18.90;3.30;;;;;;2276279;61;1492;-87
2022/10/08 00:13:39;356894.00;1.19;615.71;0.00;0.00;0.62;;;;;18.80;2.80;;;;;;2276270;61;1391;-87
2022/10/08 00:16:07;517504.00;1.73;891.97;0.00;0.00;0.62;;;;;18.50;4.80;;;;;;2276354;61;1159;-86
2022/10/08 00:18:34;410141.00;1.37;707.24;0.00;0.00;0.62;;;;;18.50;4.20;;;;;;2276309;61;1546;-88
2022/10/08 00:21:06;457637.00;1.53;788.92;106401.00;0.35;184.62;;;;;18.40;4.40;;;;;;2276281;61;1008;-87
2022/10/08 00:23:34;228846.00;0.76;395.56;0.00;0.00;0.62;;;;;18.60;4.40;;;;;;2276218;61;2040;-87
2022/10/08 00:26:03;644406.00;2.15;1110.96;0.00;0.00;0.62;;;;;18.60;4.20;;;;;;2276292;61;1071;-87
2022/10/08 00:28:30;429677.00;1.43;740.83;0.00;0.00;0.62;;;;;18.70;3.30;;;;;;2276335;61;1168;-87
2022/10/08 00:30:57;484905.00;1.62;835.84;62143.00;0.21;108.18;;;;;18.80;3.60;;;;;;2276309;61;1083;-86
2022/10/08 00:33:24;258347.00;0.86;446.31;0.00;0.00;0.62;;;;;19.00;3.10;;;;;;2276236;61;1375;-86
2022/10/08 00:35:52;406233.00;1.35;700.52;0.00;0.00;0.62;;;;;19.00;2.10;;;;;;2276326;61;1225;-86
2022/10/08 00:38:19;358166.00;1.19;617.90;0.00;0.00;0.62;;;;;18.70;3.00;;;;;;2276221;61;1150;-85
2022/10/08 00:40:47;437907.00;1.46;754.98;0.00;0.00;0.62;;;;;18.80;3.20;;;;;;2276190;61;1179;-87
2022/10/08 00:43:16;682926.00;2.28;1177.64;59773.00;0.20;104.08;;;;;18.90;3.10;;;;;;2276099;61;1998;-86
2022/10/08 00:45:45;462213.00;1.54;796.79;0.00;0.00;0.62;;;;;19.00;2.90;;;;;;2276252;61;1599;-87
2022/10/08 00:48:15;777289.00;2.59;1341.54;60600.00;0.20;105.51;;;;;19.10;2.80;;;;;;2276050;61;1006;-86
2022/10/08 00:50:42;254485.00;0.85;439.66;0.00;0.00;0.62;;;;;19.20;2.20;;;;;;2276258;61;952;-85
2022/10/08 00:53:10;472089.00;1.57;813.78;0.00;0.00;0.62;;;;;19.00;2.50;;;;;;2276523;61;1453;-86
2022/10/08 00:55:40;301231.00;1.00;520.04;0.00;0.00;0.62;;;;;19.00;2.80;;;;;;2276985;61;1095;-86
2022/10/08 00:58:15;342594.00;1.14;591.13;0.00;0.00;0.62;;;;;19.00;2.50;;;;;;2276894;61;1548;-86
2022/10/08 01:00:43;373049.00;1.24;643.48;0.00;0.00;0.62;;;;;19.20;2.20;;;;;;2276988;61;1114;-86
2022/10/08 01:03:10;478955.00;1.60;825.60;0.00;0.00;0.62;;;;;19.20;1.70;;;;;;2276794;61;1916;-86
2022/10/08 01:05:48;467822.00;1.56;806.44;0.00;0.00;0.62;;;;;19.20;2.00;;;;;;2276915;61;1113;-85
2022/10/08 01:08:25;320247.00;1.07;552.72;0.00;0.00;0.62;;;;;18.90;2.20;;;;;;2276902;61;989;-86
2022/10/08 01:11:04;353792.00;1.18;610.38;0.00;0.00;0.62;;;;;18.70;3.10;;;;;;2276782;61;1624;-86
2022/10/08 01:13:44;259804.00;0.87;448.81;0.00;0.00;0.62;;;;;18.60;3.10;;;;;;2276779;61;1379;-86
2022/10/08 01:16:28;537331.00;1.79;926.12;45821.00;0.15;79.96;;;;;18.70;3.20;;;;;;2276898;61;1080;-86
2022/10/08 01:19:06;365177.00;1.22;629.95;0.00;0.00;0.62;;;;;18.60;3.90;;;;;;2276783;61;1112;-84
2022/10/08 01:21:42;648282.00;2.16;1117.66;5171.00;0.02;9.58;;;;;18.50;3.60;;;;;;2276823;61;1083;-86
2022/10/08 01:25:31;352926.00;1.18;608.89;0.00;0.00;0.62;;;;;18.60;3.80;;;;;;2276723;61;2013;-85
2022/10/08 01:27:22;320895.00;1.07;553.84;0.00;0.00;0.62;;;;;18.60;3.10;;;;;;2276746;61;1292;-86
2022/10/08 01:29:51;409704.00;1.37;706.49;0.00;0.00;0.62;;;;;18.50;4.20;;;;;;2276750;61;1049;-86
2022/10/08 01:32:25;284375.00;0.95;491.06;0.00;0.00;0.62;;;;;18.60;4.10;;;;;;2276823;61;1082;-87
2022/10/08 01:34:59;547108.00;1.82;942.97;34977.00;0.12;61.20;;;;;18.90;3.10;;;;;;2276701;61;1439;-87
2022/10/08 01:37:31;733249.00;2.44;1264.95;47684.00;0.16;83.18;;;;;19.20;2.40;;;;;;2276798;61;1071;-85
2022/10/08 01:40:02;411749.00;1.37;710.00;0.00;0.00;0.62;;;;;19.40;1.50;;;;;;2276766;61;1008;-87
2022/10/08 01:42:35;479794.00;1.60;827.04;0.00;0.00;0.62;;;;;19.20;2.00;;;;;;2276697;61;1993;-87
2022/10/08 01:45:09;123148128.00;410.49;75660480.00;0.00;0.00;0.62;;;;;19.10;2.40;;;;;;2276741;61;1508;-86
2022/10/08 01:47:39;250368.00;0.83;432.58;0.00;0.00;0.62;;;;;19.10;2.70;;;;;;2276768;61;1177;-86
2022/10/08 01:50:12;441726.00;1.47;761.55;0.00;0.00;0.62;;;;;19.10;2.30;;;;;;2276782;61;1224;-85
2022/10/08 01:52:46;369031.00;1.23;636.57;0.00;0.00;0.62;;;;;19.20;2.00;;;;;;2276747;61;1433;-87
2022/10/08 01:55:20;251312.00;0.84;434.21;0.00;0.00;0.62;;;;;19.20;2.20;;;;;;2276749;61;1526;-86
2022/10/08 01:57:50;427093.00;1.42;736.39;0.00;0.00;0.62;;;;;19.20;2.20;;;;;;2276776;61;1086;-85
2022/10/08 02:00:17;707739.00;2.36;1220.66;36526.00;0.12;63.88;;;;;19.20;2.40;;;;;;2276758;61;1083;-87
2022/10/08 02:02:44;373790.00;1.25;644.75;0.00;0.00;0.62;;;;;19.20;1.60;;;;;;2276684;61;1923;-84
2022/10/08 02:05:12;288187.00;0.96;497.61;0.00;0.00;0.62;;;;;19.10;1.70;;;;;;2276615;61;1532;-88
2022/10/08 02:07:42;414024.00;1.38;713.92;44465.00;0.15;77.61;;;;;18.90;1.50;;;;;;2276649;61;1106;-86
2022/10/08 02:10:11;560753.00;1.87;966.50;0.00;0.00;0.62;;;;;18.50;2.50;;;;;;2276691;61;1498;-86
2022/10/08 02:12:39;337211.00;1.12;581.88;0.00;0.00;0.62;;;;;18.20;3.40;;;;;;2276716;61;1414;-85
2022/10/08 02:15:11;437532.00;1.46;754.34;0.00;0.00;0.62;;;;;18.30;3.90;;;;;;2276685;61;1409;-86
2022/10/08 02:17:50;518946.00;1.73;894.45;0.00;0.00;0.62;;;;;18.30;3.70;;;;;;2276635;61;1551;-86
2022/10/08 02:20:26;325669.00;1.09;562.04;0.00;0.00;0.62;;;;;18.30;3.90;;;;;;2276682;61;1268;-88
2022/10/08 02:23:00;592256.00;1.97;1020.85;65649.00;0.22;114.24;;;;;18.40;3.90;;;;;;2276573;61;2008;-86
2022/10/08 02:25:33;287925.00;0.96;497.16;0.00;0.00;0.62;;;;;18.70;4.00;;;;;;2276730;61;1130;-86
2022/10/08 02:28:10;489354.00;1.63;843.50;48644.00;0.16;84.84;;;;;18.80;3.30;;;;;;2276690;61;1090;-87
2022/10/08 02:30:46;450582.00;1.50;776.78;0.00;0.00;0.62;;;;;18.90;3.30;;;;;;2276663;61;1124;-87
2022/10/08 02:33:18;230222.00;0.77;397.93;0.00;0.00;0.62;;;;;19.00;2.60;;;;;;2276524;61;1891;-86
2022/10/08 02:35:49;485983.00;1.62;837.69;0.00;0.00;0.62;;;;;19.00;3.20;;;;;;2276667;61;1059;-85
2022/10/08 02:38:21;431522.00;1.44;744.00;0.00;0.00;0.62;;;;;19.10;2.50;;;;;;2276557;61;1075;-86
2022/10/08 02:40:52;631245.00;2.10;1088.20;35339.00;0.12;61.82;;;;;18.90;3.00;;;;;;2276601;61;1869;-86
2022/10/08 02:43:25;219724.00;0.73;379.87;0.00;0.00;0.62;;;;;18.90;2.70;;;;;;2276605;61;1919;-87
2022/10/08 02:46:00;647097.00;2.16;1115.61;73373.00;0.24;127.59;;;;;18.80;2.80;;;;;;2276275;61;1091;-86
2022/10/08 02:48:31;282846.00;0.94;488.43;0.00;0.00;0.62;;;;;18.80;3.20;;;;;;2276653;61;1110;-85
2022/10/08 02:51:01;363864.00;1.21;627.69;0.00;0.00;0.62;;;;;19.00;2.90;;;;;;2276580;61;1091;-85
2022/10/08 02:53:29;672731.00;2.24;1159.98;108959.00;0.36;189.03;;;;;19.00;2.60;;;;;;2276551;61;1414;-86
2022/10/08 02:56:08;432294.00;1.44;745.33;0.00;0.00;0.62;;;;;18.70;2.60;;;;;;2276557;61;994;-86
2022/10/08 02:58:35;413097.00;1.38;712.32;0.00;0.00;0.62;;;;;18.70;4.10;;;;;;2276577;61;948;-87
2022/10/08 03:01:11;337795.00;1.13;582.88;0.00;0.00;0.62;;;;;18.60;3.40;;;;;;2276505;61;998;-85
2022/10/08 03:03:44;370502.00;1.24;639.10;0.00;0.00;0.62;;;;;18.70;3.00;;;;;;2276460;61;1978;-87
2022/10/08 03:06:14;325350.00;1.08;561.49;0.00;0.00;0.62;;;;;18.50;3.10;;;;;;2276426;61;1151;-86
2022/10/08 03:08:45;332549.00;1.11;573.87;0.00;0.00;0.62;;;;;18.40;4.10;;;;;;2276561;61;1127;-86
2022/10/08 03:11:13;470816.00;1.57;811.59;35086.00;0.12;61.39;;;;;18.60;3.70;;;;;;2276536;61;1130;-87
2022/10/08 03:13:45;454119.00;1.51;782.87;0.00;0.00;0.62;;;;;18.80;3.60;;;;;;2276403;61;1281;-86
2022/10/08 03:16:19;475712.00;1.59;820.02;0.00;0.00;0.62;;;;;18.90;3.50;;;;;;2276356;61;1095;-87
2022/10/08 03:18:46;522228.00;1.74;900.10;0.00;0.00;0.62;;;;;18.70;4.10;;;;;;2276529;61;1105;-87
2022/10/08 03:21:15;600945.00;2.00;1035.85;0.00;0.00;0.62;;;;;18.80;3.70;;;;;;2276529;61;1059;-87
2022/10/08 03:23:42;428198.00;1.43;738.29;16077.00;0.05;28.48;;;;;18.80;4.00;;;;;;2276474;61;1990;-85
2022/10/08 03:26:09;479433.00;1.60;826.42;0.00;0.00;0.62;;;;;18.70;4.10;;;;;;2276540;61;1002;-88
2022/10/08 03:28:36;429539.00;1.43;740.59;0.00;0.00;0.62;;;;;18.70;4.20;;;;;;2276501;61;1205;-87
2022/10/08 03:31:05;602724.00;2.01;1038.92;0.00;0.00;0.62;;;;;18.60;4.80;;;;;;2276457;61;1071;-87
2022/10/08 03:33:33;486952.00;1.62;839.36;0.00;0.00;0.62;;;;;18.50;4.90;;;;;;2276423;61;1590;-87
2022/10/08 03:36:00;462568.00;1.54;797.40;22020.00;0.07;38.77;;;;;18.40;5.00;;;;;;2276467;61;1114;-88
2022/10/08 03:38:27;587685.00;1.96;1012.96;51771.00;0.17;90.25;;;;;18.60;4.30;;;;;;2276418;61;1724;-85
2022/10/08 03:40:56;501329.00;1.67;864.11;0.00;0.00;0.62;;;;;18.60;4.40;;;;;;2276351;61;1024;-87
2022/10/08 03:43:24;345727.00;1.15;596.52;0.00;0.00;0.62;;;;;18.70;4.30;;;;;;2276324;61;1920;-87
2022/10/08 03:45:52;446831.00;1.49;770.33;0.00;0.00;0.62;;;;;18.80;3.60;;;;;;2276380;61;1586;-88
2022/10/08 03:48:20;315247.00;1.05;544.13;0.00;0.00;0.62;;;;;18.70;4.10;;;;;;2276403;61;2186;-86
2022/10/08 03:50:53;480789.00;1.60;828.76;4876.00;0.02;9.07;;;;;18.70;4.10;;;;;;2276404;61;1035;-88
2022/10/08 03:53:23;294962.00;0.98;509.26;0.00;0.00;0.62;;;;;18.70;4.10;;;;;;2276400;61;1458;-86
2022/10/08 03:55:50;378167.00;1.26;652.27;0.00;0.00;0.62;;;;;18.70;4.10;;;;;;2276331;61;1006;-87
2022/10/08 03:58:17;303593.00;1.01;524.10;0.00;0.00;0.62;;;;;18.80;4.10;;;;;;2276424;61;1118;-85
2022/10/08 04:00:44;461118.00;1.54;794.91;0.00;0.00;0.62;;;;;18.80;4.40;;;;;;2276331;61;1652;-87
2022/10/08 04:03:11;946414.00;3.15;1637.79;151148.00;0.50;261.79;;;;;18.90;3.90;;;;;;2276234;61;1918;-88
2022/10/08 04:05:38;548423.00;1.83;945.24;0.00;0.00;0.62;;;;;18.90;4.10;;;;;;2276412;61;1034;-86
2022/10/08 04:08:06;476758.00;1.59;821.82;0.00;0.00;0.62;;;;;18.70;4.40;;;;;;2276315;61;1079;-86
2022/10/08 04:10:37;500032.00;1.67;861.88;0.00;0.00;0.62;;;;;18.60;5.10;;;;;;2276262;61;1190;-86
2022/10/08 04:13:04;638292.00;2.13;1100.39;61859.00;0.21;107.69;;;;;18.80;4.50;;;;;;2276381;61;1433;-87
2022/10/08 04:15:31;183949.00;0.61;318.29;0.00;0.00;0.62;;;;;18.80;3.90;;;;;;2276345;61;939;-85
2022/10/08 04:17:58;486087.00;1.62;837.87;0.00;0.00;0.62;;;;;18.60;4.30;;;;;;2276228;61;1113;-86
2022/10/08 04:20:25;494647.00;1.65;852.61;0.00;0.00;0.62;;;;;18.40;5.00;;;;;;2276298;61;1575;-87
2022/10/08 04:22:52;391378.00;1.30;674.98;0.00;0.00;0.62;;;;;18.40;5.10;;;;;;2276378;61;932;-87
2022/10/08 04:25:20;532859.00;1.78;918.42;38881.00;0.13;67.95;;;;;18.40;5.10;;;;;;2276213;61;2010;-88
2022/10/08 04:27:48;450355.00;1.50;776.39;0.00;0.00;0.62;;;;;18.40;5.00;;;;;;2276476;61;1635;-86
2022/10/08 04:30:16;388373.00;1.29;669.82;0.00;0.00;0.62;;;;;18.10;5.50;;;;;;2277001;61;1038;-85
2022/10/08 04:32:43;899381.00;3.00;1555.03;58289.00;0.19;101.52;;;;;18.20;6.30;;;;;;2276993;61;1010;-87
2022/10/08 04:35:10;488954.00;1.63;842.81;0.00;0.00;0.62;;;;;18.30;5.50;;;;;;2276974;61;1309;-86
2022/10/08 04:37:37;487025.00;1.62;839.49;0.00;0.00;0.62;;;;;18.60;5.10;;;;;;2276995;61;1087;-86
2022/10/08 04:40:04;880831.00;2.94;1522.48;130117.00;0.43;225.53;;;;;18.60;5.10;;;;;;2276937;61;1023;-85
2022/10/08 04:42:32;687397.00;2.29;1185.39;61000.00;0.20;106.21;;;;;18.60;5.10;;;;;;2276954;61;1604;-84
2022/10/08 04:44:59;474333.00;1.58;817.65;16824.00;0.06;29.77;;;;;18.70;5.20;;;;;;2276940;61;2000;-84
2022/10/08 04:47:26;320009.00;1.07;552.31;0.00;0.00;0.62;;;;;18.80;4.40;;;;;;2276872;61;1039;-84
2022/10/08 04:49:53;372623.00;1.24;642.75;0.00;0.00;0.62;;;;;18.70;4.20;;;;;;2276988;61;1165;-86
2022/10/08 04:52:19;694655.00;2.32;1197.97;22592.00;0.08;39.76;;;;;18.80;3.80;;;;;;2276858;61;1023;-86
2022/10/08 04:54:47;351124.00;1.17;605.79;0.00;0.00;0.62;;;;;18.70;4.60;;;;;;2276872;61;1250;-86
2022/10/08 04:57:14;339721.00;1.13;586.19;0.00;0.00;0.62;;;;;18.70;4.40;;;;;;2276914;61;1721;-86
2022/10/08 04:59:42;505892.00;1.69;871.97;22723.00;0.08;39.99;;;;;18.60;4.30;;;;;;2276949;61;1125;-86
2022/10/08 05:02:09;294848.00;0.98;509.06;0.00;0.00;0.62;;;;;18.60;4.20;;;;;;2276909;61;2179;-85
2022/10/08 05:04:36;588472.00;1.96;1014.32;53271.00;0.18;92.84;;;;;18.60;5.00;;;;;;2276853;61;1919;-86
2022/10/08 05:07:03;284140.00;0.95;490.66;0.00;0.00;0.62;;;;;18.50;5.00;;;;;;2276862;61;1106;-86
2022/10/08 05:09:30;354866.00;1.18;612.22;0.00;0.00;0.62;;;;;18.40;4.20;;;;;;2276873;61;1086;-86
2022/10/08 05:11:57;209149.00;0.70;361.67;0.00;0.00;0.62;;;;;18.40;4.70;;;;;;2276975;61;1005;-85
2022/10/08 05:14:24;662552.00;2.21;1142.36;36483.00;0.12;63.80;;;;;18.30;4.90;;;;;;2276779;61;1390;-88
2022/10/08 05:16:52;485757.00;1.62;837.31;0.00;0.00;0.62;;;;;18.30;5.70;;;;;;2276904;61;1078;-86
2022/10/08 05:19:19;439858.00;1.47;758.34;0.00;0.00;0.62;;;;;18.30;4.80;;;;;;2276884;61;1109;-86
2022/10/08 05:21:46;372341.00;1.24;642.26;0.00;0.00;0.62;;;;;18.40;5.00;;;;;;2276822;61;1051;-86
2022/10/08 05:24:13;589236.00;1.96;1015.64;0.00;0.00;0.62;;;;;18.40;4.70;;;;;;2276799;61;1994;-87
2022/10/08 05:26:40;448282.00;1.49;772.83;0.00;0.00;0.62;;;;;18.50;4.40;;;;;;2276870;61;1439;-86
2022/10/08 05:29:07;507896.00;1.69;875.42;23037.00;0.08;40.53;;;;;18.60;4.70;;;;;;2276775;61;1590;-88
2022/10/08 05:31:37;292546.00;0.98;505.11;0.00;0.00;0.62;;;;;18.70;3.80;;;;;;2276832;61;1141;-86
2022/10/08 05:34:05;253771.00;0.85;438.44;21772.00;0.07;38.34;;;;;18.90;4.40;;;;;;2276735;61;1374;-87
2022/10/08 05:36:33;341571.00;1.14;589.37;0.00;0.00;0.62;;;;;18.90;3.80;;;;;;2276806;61;1112;-86
2022/10/08 05:39:02;557436.00;1.86;960.78;16752.00;0.06;29.65;;;;;18.90;3.10;;;;;;2276774;61;1079;-86
2022/10/08 05:41:31;357832.00;1.19;617.32;0.00;0.00;0.62;;;;;18.80;3.30;;;;;;2276828;61;1122;-88
2022/10/08 05:44:00;406597.00;1.36;701.15;9959.00;0.03;17.88;;;;;18.50;3.40;;;;;;2276691;61;1915;-86
2022/10/08 05:46:29;895466.00;2.98;1548.16;0.00;0.00;0.62;;;;;18.40;4.20;;;;;;2276714;61;1013;-88
2022/10/08 05:48:57;515809.00;1.72;889.05;0.00;0.00;0.62;;;;;18.30;4.90;;;;;;2276845;61;899;-86
2022/10/08 05:51:26;453807.00;1.51;782.33;0.00;0.00;0.62;;;;;18.40;4.40;;;;;;2276794;61;1117;-86
2022/10/08 05:53:55;471162.00;1.57;812.19;0.00;0.00;0.62;;;;;18.50;5.10;;;;;;2276528;61;1433;-85
2022/10/08 05:56:24;221981.00;0.74;383.75;0.00;0.00;0.62;;;;;18.70;5.10;;;;;;2276815;61;1102;-85
2022/10/08 05:58:51;370502.00;1.24;639.10;0.00;0.00;0.62;;;;;18.60;2.90;;;;;;2276641;61;1057;-88
2022/10/08 06:01:20;380861.00;1.27;656.91;0.00;0.00;0.62;;;;;18.40;3.90;;;;;;2276795;61;1077;-86
2022/10/08 06:03:50;510929.00;1.70;880.64;20037.00;0.07;35.33;;;;;18.70;4.30;;;;;;2276699;61;2006;-87
2022/10/08 06:06:17;321389.00;1.07;554.69;0.00;0.00;0.62;;;;;18.90;3.60;;;;;;2276603;61;1011;-87
2022/10/08 06:08:45;349379.00;1.16;602.79;0.00;0.00;0.62;;;;;18.90;3.40;;;;;;2276728;61;1133;-86
2022/10/08 06:11:13;481499.00;1.60;829.98;0.00;0.00;0.62;;;;;18.70;3.80;;;;;;2276733;61;1608;-87
2022/10/08 06:13:40;222905.00;0.74;385.34;0.00;0.00;0.62;;;;;18.80;3.70;;;;;;2276753;61;1390;-86
2022/10/08 06:16:10;181787.00;0.61;314.57;0.00;0.00;0.62;;;;;19.00;3.40;;;;;;2276680;61;1109;-87
2022/10/08 06:18:39;445513.00;1.49;768.06;56962.00;0.19;99.22;;;;;19.20;3.80;;;;;;2276690;61;1053;-87
2022/10/08 06:21:08;297144.00;0.99;513.01;0.00;0.00;0.62;;;;;19.40;2.70;;;;;;2276710;61;1139;-86
2022/10/08 06:23:36;402288.00;1.34;693.74;0.00;0.00;0.62;;;;;19.40;2.60;;;;;;2276653;61;1628;-86
2022/10/08 06:26:05;118232088.00;394.11;66948816.00;50457.00;0.17;87.98;;;;;19.40;2.90;;;;;;2276592;61;1118;-86
2022/10/08 06:28:34;202593.00;0.68;350.39;0.00;0.00;0.62;;;;;19.30;2.70;;;;;;2276650;61;1035;-85
2022/10/08 06:31:01;681644.00;2.27;1175.42;136405.00;0.45;236.37;;;;;19.20;3.10;;;;;;2301226;40;3759;-86
2022/10/08 06:33:28;553618.00;1.85;954.20;68825.00;0.23;119.73;;;;;19.00;2.80;;;;;;2277252;61;1255;-88
2022/10/08 06:35:55;478625.00;1.60;825.03;69720.00;0.23;121.28;;;;;18.70;4.20;;;;;;2276668;61;1020;-86
2022/10/08 06:38:23;777856.00;2.59;1342.53;74801.00;0.25;130.06;;;;;18.70;5.10;;;;;;2276608;61;1047;-87
2022/10/08 06:43:21;753317.00;2.51;1299.83;67511.00;0.23;117.46;;;;;19.20;3.60;;;;;;2269747;61;1410;-85
2022/10/08 06:45:47;458042.00;1.53;789.62;84985.00;0.28;147.65;;;;;19.10;4.10;;;;;;2268290;61;1972;-87
2022/10/08 06:48:15;260186.00;0.87;449.47;0.00;0.00;0.62;;;;;19.40;3.30;;;;;;2268200;61;931;-88
2022/10/08 06:50:42;413754.00;1.38;713.45;0.00;0.00;0.62;;;;;19.10;3.60;;;;;;2268088;61;1072;-87
2022/10/08 06:53:11;318840.00;1.06;550.30;0.00;0.00;0.62;;;;;19.10;3.70;;;;;;2268249;61;1269;-86
2022/10/08 06:55:38;432720.00;1.44;746.06;0.00;0.00;0.62;;;;;19.30;3.40;;;;;;2268263;61;1103;-86
2022/10/08 06:58:06;444098.00;1.48;765.63;0.00;0.00;0.62;;;;;19.20;3.20;;;;;;2268286;61;1005;-88
2022/10/08 07:00:34;476037.00;1.59;820.58;0.00;0.00;0.62;;;;;19.30;3.60;;;;;;2268215;61;902;-87
2022/10/08 07:03:01;422637.00;1.41;728.72;0.00;0.00;0.62;;;;;19.60;2.90;;;;;;2268059;61;1365;-86
2022/10/08 07:05:30;838234.00;2.79;1447.89;108381.00;0.36;188.04;;;;;19.70;2.60;;;;;;2268175;61;1988;-88
2022/10/08 07:07:59;292970.00;0.98;505.84;0.00;0.00;0.62;;;;;19.90;2.80;;;;;;2268143;61;1134;-86
2022/10/08 07:10:26;547128.00;1.82;943.01;0.00;0.00;0.62;;;;;19.90;3.00;;;;;;2267722;61;1596;-86
2022/10/08 07:12:52;592032.00;1.97;1020.46;112960.00;0.38;195.94;;;;;19.90;2.40;;;;;;2259214;40;1121083;-88
2022/10/08 07:15:19;527242.00;1.76;908.74;37564.00;0.13;65.67;;;;;20.10;2.70;;;;;;2276412;61;1475;-86
2022/10/08 07:17:47;519010.00;1.73;894.56;0.00;0.00;0.62;;;;;20.10;2.70;;;;;;2276344;61;1041;-86
2022/10/08 07:20:14;525754.00;1.75;906.18;0.00;0.00;0.62;;;;;20.40;1.60;;;;;;2276519;61;1068;-86
2022/10/08 07:22:41;323098.00;1.08;557.62;0.00;0.00;0.62;;;;;20.40;1.00;;;;;;2276469;61;1102;-86
2022/10/08 07:25:08;297840.00;0.99;514.21;18884.00;0.06;33.34;;;;;20.20;1.70;;;;;;2276498;61;1997;-87
2022/10/08 07:27:35;396863.00;1.32;684.41;0.00;0.00;0.62;;;;;20.00;1.90;;;;;;2276393;61;986;-87
2022/10/08 07:30:02;353271.00;1.18;609.48;0.00;0.00;0.62;;;;;20.00;2.10;;;;;;2276497;61;1646;-85
2022/10/08 07:32:33;471713.00;1.57;813.14;27505.00;0.09;48.26;;;;;19.70;2.60;;;;;;2276504;61;1026;-86
2022/10/08 07:35:01;537971.00;1.79;927.23;28411.00;0.09;49.83;;;;;19.70;3.60;;;;;;2276396;61;1501;-87
2022/10/08 07:37:28;405403.00;1.35;699.09;0.00;0.00;0.62;;;;;19.80;3.70;;;;;;2276350;61;1007;-85
2022/10/08 07:39:55;505927.00;1.69;872.03;61719.00;0.21;107.45;;;;;19.80;3.40;;;;;;2276508;61;1117;-87
2022/10/08 07:42:22;644855.00;2.15;1111.74;0.00;0.00;0.62;;;;;20.30;3.10;;;;;;2276394;61;1011;-85
2022/10/08 07:44:49;601189.00;2.00;1036.27;78085.00;0.26;135.73;;;;;20.80;1.60;;;;;;2276375;61;1989;-87
2022/10/08 07:47:15;623165.00;2.08;1074.24;73229.00;0.24;127.34;;;;;20.80;1.00;;;;;;2276382;61;1137;-86
2022/10/08 07:49:42;347235.00;1.16;599.11;0.00;0.00;0.62;;;;;21.00;1.10;;;;;;2276386;61;1118;-87
2022/10/08 07:52:10;288668.00;0.96;498.44;0.00;0.00;0.62;;;;;21.10;1.20;;;;;;2276224;61;1035;-86
2022/10/08 07:54:37;461107.00;1.54;794.89;0.00;0.00;0.62;;;;;21.20;1.00;;;;;;2276405;61;1271;-87
2022/10/08 07:57:04;256537.00;0.86;443.19;0.00;0.00;0.62;;;;;21.20;1.00;;;;;;2276336;61;1622;-86
2022/10/08 07:59:31;455548.00;1.52;785.33;24850.00;0.08;43.67;;;;;21.20;1.00;;;;;;2276444;61;1090;-87
2022/10/08 08:01:58;806765.00;2.69;1392.92;126565.00;0.42;219.41;;;;;21.10;1.10;;;;;;2276296;61;990;-87
2022/10/08 08:04:25;482882.00;1.61;832.36;0.00;0.00;0.62;;;;;21.00;1.30;;;;;;2276370;61;1918;-87
2022/10/08 08:06:52;661403.00;2.20;1140.37;0.00;0.00;0.62;;;;;20.80;1.60;;;;;;2276413;61;1031;-86
2022/10/08 08:09:21;162707.00;0.54;281.70;0.00;0.00;0.62;;;;;21.00;1.10;;;;;;2276436;61;1009;-87
2022/10/08 08:11:48;241122.00;0.80;416.68;0.00;0.00;0.62;;;;;21.10;1.20;;;;;;2276388;61;1023;-86
2022/10/08 08:14:15;357067.00;1.19;616.01;0.00;0.00;0.62;;;;;21.10;1.00;;;;;;2276232;61;1276;-86
2022/10/08 08:16:42;366234.00;1.22;631.76;0.00;0.00;0.62;;;;;21.10;1.20;;;;;;2276375;61;1060;-86
2022/10/08 08:19:09;606110.00;2.02;1044.77;131135.00;0.44;227.29;;;;;21.10;1.20;;;;;;2276345;61;1032;-87
2022/10/08 08:21:38;632149.00;2.11;1089.76;74086.00;0.25;128.82;;;;;20.70;1.90;;;;;;2276318;61;1071;-88
2022/10/08 08:24:07;290658.00;0.97;501.86;0.00;0.00;0.62;;;;;20.70;2.40;;;;;;2276301;61;1423;-86
2022/10/08 08:26:37;641064.00;2.14;1105.18;74212.00;0.25;129.04;;;;;20.60;2.90;;;;;;2276270;61;2005;-86
2022/10/08 08:29:08;355935.00;1.19;614.06;0.00;0.00;0.62;;;;;21.00;1.40;;;;;;2276339;61;1070;-88
2022/10/08 08:31:36;399026.00;1.33;688.13;55210.00;0.18;96.20;;;;;21.10;1.60;;;;;;2276374;61;917;-87
2022/10/08 08:34:05;371745.00;1.24;641.24;0.00;0.00;0.62;;;;;21.00;1.80;;;;;;2276284;61;1332;-88
2022/10/08 08:36:35;273102.00;0.91;471.68;0.00;0.00;0.62;;;;;20.80;2.90;;;;;;2276276;61;1465;-86
2022/10/08 08:39:04;317179.00;1.06;547.45;0.00;0.00;0.62;;;;;20.80;3.40;;;;;;2276301;61;1151;-86
2022/10/08 08:41:54;478359.00;1.59;824.57;13870.00;0.05;24.65;;;;;21.00;2.70;;;;;;2276305;61;1180;-86
2022/10/08 08:44:25;793849.00;2.65;1370.40;51578.00;0.17;89.92;;;;;21.10;1.00;;;;;;2276297;61;1487;-85
2022/10/08 08:46:58;703123.00;2.34;1212.65;11735.00;0.04;20.95;;;;;21.20;1.80;;;;;;2275952;61;1068;-86
2022/10/08 08:49:30;175363.00;0.58;303.50;0.00;0.00;0.62;;;;;21.50;1.00;;;;;;2276366;61;922;-86
2022/10/08 08:52:00;248504.00;0.83;429.38;0.00;0.00;0.62;;;;;21.90;1.00;;;;;;2276327;61;1169;-85
2022/10/08 08:54:27;468931.00;1.56;808.35;0.00;0.00;0.62;;;;;22.00;1.00;;;;;;2276279;61;1412;-86
2022/10/08 08:56:55;412488.00;1.37;711.27;0.00;0.00;0.62;;;;;22.10;1.00;;;;;;2276343;61;1115;-88
2022/10/08 08:59:29;302329.00;1.01;521.92;0.00;0.00;0.62;;;;;22.10;1.00;;;;;;2276307;61;1025;-86
2022/10/08 09:02:00;400237.00;1.33;690.21;15350.00;0.05;27.22;;;;;21.80;1.00;;;;;;2276272;61;1040;-87
2022/10/08 09:04:39;884794.00;2.95;1529.43;53923.00;0.18;93.97;;;;;22.10;1.00;;;;;;2276228;61;1396;-86
2022/10/08 09:07:11;341391.00;1.14;589.06;0.00;0.00;0.62;;;;;22.40;1.00;;;;;;2276208;61;1160;-85
2022/10/08 09:09:42;793881.00;2.65;1370.45;116876.00;0.39;202.69;;;;;22.70;1.00;;;;;;2276252;61;1280;-86
2022/10/08 09:12:18;270924.00;0.90;467.93;0.00;0.00;0.62;;;;;22.70;1.00;;;;;;2276252;61;1027;-86
2022/10/08 09:14:50;230202.00;0.77;397.90;0.00;0.00;0.62;;;;;22.60;1.00;;;;;;2276625;61;1314;-87
2022/10/08 09:17:19;286743.00;0.96;495.13;0.00;0.00;0.62;;;;;22.30;1.00;;;;;;2276940;61;1029;-87
2022/10/08 09:19:49;96646.00;0.32;167.78;0.00;0.00;0.62;;;;;22.40;1.00;;;;;;2276933;61;1096;-88
2022/10/08 09:22:24;606967.00;2.02;1046.25;69056.00;0.23;120.13;;;;;22.40;1.00;;;;;;2276998;61;978;-87
2022/10/08 09:24:56;619518.00;2.07;1067.93;52415.00;0.17;91.36;;;;;22.30;1.00;;;;;;2276912;61;1923;-85
2022/10/08 09:27:25;374466.00;1.25;645.91;60301.00;0.20;105.00;;;;;22.00;1.00;;;;;;2276901;61;1768;-86
2022/10/08 09:29:52;546775.00;1.82;942.40;145773.00;0.49;252.52;;;;;21.90;1.00;;;;;;2276923;61;1106;-86
2022/10/08 09:32:21;392043.00;1.31;676.13;315.00;0.00;1.17;;;;;22.10;1.00;;;;;;2276879;61;1099;-86
2022/10/08 09:34:49;479991.00;1.60;827.38;86625.00;0.29;150.48;;;;;22.30;1.00;;;;;;2276894;61;1407;-85
2022/10/08 09:37:22;349920.00;1.17;603.72;0.00;0.00;0.62;;;;;22.40;1.00;;;;;;2276819;61;1746;-86
2022/10/08 09:40:18;534770.00;1.78;921.71;0.00;0.00;0.62;;;;;22.20;1.00;;;;;;2276843;61;1492;-86
2022/10/08 09:43:12;410018.00;1.37;707.03;20145.00;0.07;35.52;;;;;22.20;1.00;;;;;;2276807;61;1058;-85
2022/10/08 09:45:41;490947.00;1.64;846.24;127088.00;0.42;220.31;;;;;22.60;1.00;;;;;;2276773;61;1911;-88
2022/10/08 09:48:24;274558.00;0.92;474.18;0.00;0.00;0.62;;;;;22.50;1.00;;;;;;2276832;61;1007;-85
2022/10/08 09:50:55;421248.00;1.40;726.34;61975.00;0.21;107.89;;;;;22.40;1.00;;;;;;2276864;61;1330;-85
2022/10/08 09:53:25;578379.00;1.93;996.90;0.00;0.00;0.62;;;;;22.60;1.00;;;;;;2276767;61;1482;-86
2022/10/08 09:55:57;338761.00;1.13;584.54;34398.00;0.11;60.19;;;;;22.60;1.00;;;;;;2276750;61;1079;-87
2022/10/08 09:58:28;578524.00;1.93;997.15;91360.00;0.30;158.66;;;;;22.80;1.00;;;;;;2276772;61;1102;-86
2022/10/08 10:01:01;359062.00;1.20;619.44;0.00;0.00;0.62;;;;;22.80;1.00;;;;;;2276795;61;1134;-87